sensor_id;sensor_type;location;lat;lon;timestamp;temperature;humidity
6843;DHT22;3460;52.028;8.916;2022-12-07T00:01:47;3.30;99.90
6843;DHT22;3460;52.028;8.916;2022-12-07T00:04:15;3.40;99.90
6843;DHT22;3460;52.028;8.916;2022-12-07T00:06:44;3.30;99.90
6843;DHT22;3460;52.028;8.916;2022-12-07T00:09:14;3.40;99.90
6843;DHT22;3460;52.028;8.916;2022-12-07T00:11:41;3.40;99.90
6843;DHT22;3460;52.028;8.916;2022-12-07T00:14:11;3.40;99.90
6843;DHT22;3460;52.028;8.916;2022-12-07T00:16:39;3.40;99.90
6843;DHT22;3460;52.028;8.916;2022-12-07T00:19:06;3.30;99.90
6843;DHT22;3460;52.028;8.916;2022-12-07T00:21:34;3.40;99.90
6843;DHT22;3460;52.028;8.916;2022-12-07T00:24:02;3.40;99.90
6843;DHT22;3460;52.028;8.916;2022-12-07T00:26:32;3.40;99.90
6843;DHT22;3460;52.028;8.916;2022-12-07T00:29:00;3.40;99.90
6843;DHT22;3460;52.028;8.916;2022-12-07T00:31:29;3.40;99.90
6843;DHT22;3460;52.028;8.916;2022-12-07T00:33:58;3.40;99.90
6843;DHT22;3460;52.028;8.916;2022-12-07T00:36:25;3.40;99.90
6843;DHT22;3460;52.028;8.916;2022-12-07T00:38:53;3.40;99.90
6843;DHT22;3460;52.028;8.916;2022-12-07T00:41:21;3.40;99.90
6843;DHT22;3460;52.028;8.916;2022-12-07T00:43:50;3.40;99.90
6843;DHT22;3460;52.028;8.916;2022-12-07T00:46:18;3.40;99.90
6843;DHT22;3460;52.028;8.916;2022-12-07T00:48:45;3.40;99.90
6843;DHT22;3460;52.028;8.916;2022-12-07T00:51:13;3.50;99.90
6843;DHT22;3460;52.028;8.916;2022-12-07T00:53:40;3.50;99.90
6843;DHT22;3460;52.028;8.916;2022-12-07T00:56:08;3.50;99.90
6843;DHT22;3460;52.028;8.916;2022-12-07T00:58:35;3.50;99.90
6843;DHT22;3460;52.028;8.916;2022-12-07T01:01:05;3.60;99.90
6843;DHT22;3460;52.028;8.916;2022-12-07T01:03:32;3.60;99.90
6843;DHT22;3460;52.028;8.916;2022-12-07T01:05:59;3.60;99.90
6843;DHT22;3460;52.028;8.916;2022-12-07T01:08:26;3.60;99.90
6843;DHT22;3460;52.028;8.916;2022-12-07T01:10:58;3.70;99.90
6843;DHT22;3460;52.028;8.916;2022-12-07T01:13:25;3.70;99.90
6843;DHT22;3460;52.028;8.916;2022-12-07T01:15:56;3.70;99.90
6843;DHT22;3460;52.028;8.916;2022-12-07T01:18:25;3.70;99.90
6843;DHT22;3460;52.028;8.916;2022-12-07T01:20:58;3.80;99.90
6843;DHT22;3460;52.028;8.916;2022-12-07T01:23:24;3.80;99.90
6843;DHT22;3460;52.028;8.916;2022-12-07T01:25:54;3.80;99.90
6843;DHT22;3460;52.028;8.916;2022-12-07T01:28:21;3.80;99.90
6843;DHT22;3460;52.028;8.916;2022-12-07T01:30:55;3.90;99.90
6843;DHT22;3460;52.028;8.916;2022-12-07T01:33:22;3.90;99.90
6843;DHT22;3460;52.028;8.916;2022-12-07T01:35:50;3.90;99.90
6843;DHT22;3460;52.028;8.916;2022-12-07T01:38:16;4.00;99.90
6843;DHT22;3460;52.028;8.916;2022-12-07T01:40:43;4.00;99.90
6843;DHT22;3460;52.028;8.916;2022-12-07T01:43:15;4.00;99.90
6843;DHT22;3460;52.028;8.916;2022-12-07T01:45:43;4.20;99.90
6843;DHT22;3460;52.028;8.916;2022-12-07T01:48:12;4.20;99.90
6843;DHT22;3460;52.028;8.916;2022-12-07T01:50:40;4.20;99.90
6843;DHT22;3460;52.028;8.916;2022-12-07T01:53:10;4.30;99.90
6843;DHT22;3460;52.028;8.916;2022-12-07T01:55:40;4.30;99.90
6843;DHT22;3460;52.028;8.916;2022-12-07T01:58:08;4.20;99.90
6843;DHT22;3460;52.028;8.916;2022-12-07T02:00:35;4.30;99.90
6843;DHT22;3460;52.028;8.916;2022-12-07T02:03:05;4.30;99.90
6843;DHT22;3460;52.028;8.916;2022-12-07T02:05:34;4.30;99.90
6843;DHT22;3460;52.028;8.916;2022-12-07T02:08:01;4.30;99.90
6843;DHT22;3460;52.028;8.916;2022-12-07T02:10:31;4.30;99.90
6843;DHT22;3460;52.028;8.916;2022-12-07T02:13:01;4.30;99.90
6843;DHT22;3460;52.028;8.916;2022-12-07T02:15:36;4.30;99.90
6843;DHT22;3460;52.028;8.916;2022-12-07T02:18:09;4.30;99.90
6843;DHT22;3460;52.028;8.916;2022-12-07T02:20:45;4.30;99.90
6843;DHT22;3460;52.028;8.916;2022-12-07T02:23:41;4.30;99.90
6843;DHT22;3460;52.028;8.916;2022-12-07T02:26:42;4.30;99.90
6843;DHT22;3460;52.028;8.916;2022-12-07T02:29:19;4.30;99.90
6843;DHT22;3460;52.028;8.916;2022-12-07T02:31:54;4.30;99.90
6843;DHT22;3460;52.028;8.916;2022-12-07T02:34:28;4.30;99.90
6843;DHT22;3460;52.028;8.916;2022-12-07T02:37:01;4.30;99.90
6843;DHT22;3460;52.028;8.916;2022-12-07T02:39:32;4.30;99.90
6843;DHT22;3460;52.028;8.916;2022-12-07T02:42:04;4.30;99.90
6843;DHT22;3460;52.028;8.916;2022-12-07T02:44:36;4.30;99.90
6843;DHT22;3460;52.028;8.916;2022-12-07T02:47:05;4.30;99.90
6843;DHT22;3460;52.028;8.916;2022-12-07T02:49:33;4.30;99.90
6843;DHT22;3460;52.028;8.916;2022-12-07T02:52:01;4.40;99.90
6843;DHT22;3460;52.028;8.916;2022-12-07T02:54:28;4.30;99.90
6843;DHT22;3460;52.028;8.916;2022-12-07T02:57:01;4.20;99.90
6843;DHT22;3460;52.028;8.916;2022-12-07T02:59:39;4.20;99.90
6843;DHT22;3460;52.028;8.916;2022-12-07T03:02:18;4.20;99.90
6843;DHT22;3460;52.028;8.916;2022-12-07T03:04:55;4.20;99.90
6843;DHT22;3460;52.028;8.916;2022-12-07T03:07:30;4.20;99.90
6843;DHT22;3460;52.028;8.916;2022-12-07T03:10:03;4.20;99.90
6843;DHT22;3460;52.028;8.916;2022-12-07T03:12:35;4.20;99.90
6843;DHT22;3460;52.028;8.916;2022-12-07T03:15:09;4.20;99.90
6843;DHT22;3460;52.028;8.916;2022-12-07T03:17:38;4.20;99.90
6843;DHT22;3460;52.028;8.916;2022-12-07T03:20:10;4.20;99.90
6843;DHT22;3460;52.028;8.916;2022-12-07T03:22:38;4.20;99.90
6843;DHT22;3460;52.028;8.916;2022-12-07T03:25:10;4.10;99.90
6843;DHT22;3460;52.028;8.916;2022-12-07T03:27:41;4.20;99.90
6843;DHT22;3460;52.028;8.916;2022-12-07T03:30:16;4.20;99.90
6843;DHT22;3460;52.028;8.916;2022-12-07T03:32:45;4.20;99.90
6843;DHT22;3460;52.028;8.916;2022-12-07T03:35:17;4.20;99.90
6843;DHT22;3460;52.028;8.916;2022-12-07T03:37:50;4.10;99.90
6843;DHT22;3460;52.028;8.916;2022-12-07T03:40:23;4.20;99.90
6843;DHT22;3460;52.028;8.916;2022-12-07T03:42:51;4.20;99.90
6843;DHT22;3460;52.028;8.916;2022-12-07T03:45:23;4.20;99.90
6843;DHT22;3460;52.028;8.916;2022-12-07T03:47:58;4.20;99.90
6843;DHT22;3460;52.028;8.916;2022-12-07T03:50:31;4.10;99.90
6843;DHT22;3460;52.028;8.916;2022-12-07T03:53:02;4.20;99.90
6843;DHT22;3460;52.028;8.916;2022-12-07T03:55:32;4.10;99.90
6843;DHT22;3460;52.028;8.916;2022-12-07T03:58:02;4.10;99.90
6843;DHT22;3460;52.028;8.916;2022-12-07T04:00:31;4.10;99.90
6843;DHT22;3460;52.028;8.916;2022-12-07T04:02:58;4.00;99.90
6843;DHT22;3460;52.028;8.916;2022-12-07T04:05:26;4.00;99.90
6843;DHT22;3460;52.028;8.916;2022-12-07T04:07:52;4.00;99.90
6843;DHT22;3460;52.028;8.916;2022-12-07T04:10:19;4.00;99.90
6843;DHT22;3460;52.028;8.916;2022-12-07T04:12:46;3.90;99.90
6843;DHT22;3460;52.028;8.916;2022-12-07T04:15:13;3.90;99.90
6843;DHT22;3460;52.028;8.916;2022-12-07T04:17:41;3.90;99.90
6843;DHT22;3460;52.028;8.916;2022-12-07T04:20:09;3.90;99.90
6843;DHT22;3460;52.028;8.916;2022-12-07T04:22:36;3.90;99.90
6843;DHT22;3460;52.028;8.916;2022-12-07T04:25:03;3.90;99.90
6843;DHT22;3460;52.028;8.916;2022-12-07T04:27:30;3.90;99.90
6843;DHT22;3460;52.028;8.916;2022-12-07T04:29:56;3.90;99.90
6843;DHT22;3460;52.028;8.916;2022-12-07T04:32:23;3.80;99.90
6843;DHT22;3460;52.028;8.916;2022-12-07T04:34:51;3.80;99.90
6843;DHT22;3460;52.028;8.916;2022-12-07T04:37:18;3.80;99.90
6843;DHT22;3460;52.028;8.916;2022-12-07T04:39:44;3.80;99.90
6843;DHT22;3460;52.028;8.916;2022-12-07T04:42:11;3.80;99.90
6843;DHT22;3460;52.028;8.916;2022-12-07T04:44:38;3.70;99.90
6843;DHT22;3460;52.028;8.916;2022-12-07T04:47:05;3.70;99.90
6843;DHT22;3460;52.028;8.916;2022-12-07T04:49:32;3.70;99.90
6843;DHT22;3460;52.028;8.916;2022-12-07T04:52:00;3.70;99.90
6843;DHT22;3460;52.028;8.916;2022-12-07T04:54:27;3.80;99.90
6843;DHT22;3460;52.028;8.916;2022-12-07T04:56:53;3.70;99.90
6843;DHT22;3460;52.028;8.916;2022-12-07T04:59:20;3.70;99.90
6843;DHT22;3460;52.028;8.916;2022-12-07T05:01:47;3.70;99.90
6843;DHT22;3460;52.028;8.916;2022-12-07T05:04:14;3.70;99.90
6843;DHT22;3460;52.028;8.916;2022-12-07T05:06:41;3.70;99.90
6843;DHT22;3460;52.028;8.916;2022-12-07T05:09:09;3.70;99.90
6843;DHT22;3460;52.028;8.916;2022-12-07T05:11:36;3.60;99.90
6843;DHT22;3460;52.028;8.916;2022-12-07T05:14:09;3.60;99.90
6843;DHT22;3460;52.028;8.916;2022-12-07T05:16:36;3.60;99.90
6843;DHT22;3460;52.028;8.916;2022-12-07T05:19:03;3.60;99.90
6843;DHT22;3460;52.028;8.916;2022-12-07T05:21:30;3.60;99.90
6843;DHT22;3460;52.028;8.916;2022-12-07T05:23:57;3.60;99.90
6843;DHT22;3460;52.028;8.916;2022-12-07T05:26:25;3.60;99.90
6843;DHT22;3460;52.028;8.916;2022-12-07T05:28:52;3.60;99.90
6843;DHT22;3460;52.028;8.916;2022-12-07T05:31:19;3.60;99.90
6843;DHT22;3460;52.028;8.916;2022-12-07T05:33:46;3.60;99.90
6843;DHT22;3460;52.028;8.916;2022-12-07T05:36:13;3.60;99.90
6843;DHT22;3460;52.028;8.916;2022-12-07T05:38:40;3.60;99.90
6843;DHT22;3460;52.028;8.916;2022-12-07T05:41:08;3.60;99.90
6843;DHT22;3460;52.028;8.916;2022-12-07T05:43:57;3.60;99.90
6843;DHT22;3460;52.028;8.916;2022-12-07T05:46:23;3.50;99.90
6843;DHT22;3460;52.028;8.916;2022-12-07T05:48:50;3.60;99.90
6843;DHT22;3460;52.028;8.916;2022-12-07T05:51:17;3.60;99.90
6843;DHT22;3460;52.028;8.916;2022-12-07T05:53:45;3.50;99.90
6843;DHT22;3460;52.028;8.916;2022-12-07T05:56:11;3.60;99.90
6843;DHT22;3460;52.028;8.916;2022-12-07T05:58:38;3.60;99.90
6843;DHT22;3460;52.028;8.916;2022-12-07T06:01:23;3.70;99.90
6843;DHT22;3460;52.028;8.916;2022-12-07T06:03:50;3.70;99.90
6843;DHT22;3460;52.028;8.916;2022-12-07T06:06:17;3.70;99.90
6843;DHT22;3460;52.028;8.916;2022-12-07T06:08:43;3.70;99.90
6843;DHT22;3460;52.028;8.916;2022-12-07T06:11:10;3.70;99.90
6843;DHT22;3460;52.028;8.916;2022-12-07T06:13:55;3.70;99.90
6843;DHT22;3460;52.028;8.916;2022-12-07T06:16:22;3.70;99.90
6843;DHT22;3460;52.028;8.916;2022-12-07T06:18:50;3.70;99.90
6843;DHT22;3460;52.028;8.916;2022-12-07T06:21:16;3.70;99.90
6843;DHT22;3460;52.028;8.916;2022-12-07T06:23:43;3.70;99.90
6843;DHT22;3460;52.028;8.916;2022-12-07T06:26:10;3.70;99.90
6843;DHT22;3460;52.028;8.916;2022-12-07T06:28:37;3.60;99.90
6843;DHT22;3460;52.028;8.916;2022-12-07T06:31:04;3.60;99.90
6843;DHT22;3460;52.028;8.916;2022-12-07T06:33:30;3.50;99.90
6843;DHT22;3460;52.028;8.916;2022-12-07T06:35:58;3.60;99.90
6843;DHT22;3460;52.028;8.916;2022-12-07T06:38:25;3.60;99.90
6843;DHT22;3460;52.028;8.916;2022-12-07T06:40:52;3.60;99.90
6843;DHT22;3460;52.028;8.916;2022-12-07T06:43:18;3.60;99.90
6843;DHT22;3460;52.028;8.916;2022-12-07T06:45:45;3.60;99.90
6843;DHT22;3460;52.028;8.916;2022-12-07T06:48:12;3.60;99.90
6843;DHT22;3460;52.028;8.916;2022-12-07T06:50:39;3.50;99.90
6843;DHT22;3460;52.028;8.916;2022-12-07T06:53:08;3.60;99.90
6843;DHT22;3460;52.028;8.916;2022-12-07T06:55:35;3.60;99.90
6843;DHT22;3460;52.028;8.916;2022-12-07T06:58:02;3.50;99.90
6843;DHT22;3460;52.028;8.916;2022-12-07T07:00:29;3.50;99.90
6843;DHT22;3460;52.028;8.916;2022-12-07T07:02:56;3.50;99.90
6843;DHT22;3460;52.028;8.916;2022-12-07T07:05:22;3.50;99.90
6843;DHT22;3460;52.028;8.916;2022-12-07T07:07:49;3.60;99.90
6843;DHT22;3460;52.028;8.916;2022-12-07T07:10:18;3.60;99.90
6843;DHT22;3460;52.028;8.916;2022-12-07T07:12:44;3.50;99.90
6843;DHT22;3460;52.028;8.916;2022-12-07T07:15:11;3.50;99.90
6843;DHT22;3460;52.028;8.916;2022-12-07T07:17:38;3.50;99.90
6843;DHT22;3460;52.028;8.916;2022-12-07T07:20:07;3.50;99.90
6843;DHT22;3460;52.028;8.916;2022-12-07T07:22:33;3.50;99.90
6843;DHT22;3460;52.028;8.916;2022-12-07T07:25:00;3.50;99.90
6843;DHT22;3460;52.028;8.916;2022-12-07T07:27:28;3.60;99.90
6843;DHT22;3460;52.028;8.916;2022-12-07T07:29:55;3.50;99.90
6843;DHT22;3460;52.028;8.916;2022-12-07T07:32:22;3.50;99.90
6843;DHT22;3460;52.028;8.916;2022-12-07T07:34:49;3.50;99.90
6843;DHT22;3460;52.028;8.916;2022-12-07T07:37:15;3.50;99.90
6843;DHT22;3460;52.028;8.916;2022-12-07T07:39:42;3.50;99.90
6843;DHT22;3460;52.028;8.916;2022-12-07T07:42:09;3.50;99.90
6843;DHT22;3460;52.028;8.916;2022-12-07T07:44:37;3.50;99.90
6843;DHT22;3460;52.028;8.916;2022-12-07T07:47:03;3.50;99.90
6843;DHT22;3460;52.028;8.916;2022-12-07T07:49:30;3.50;99.90
6843;DHT22;3460;52.028;8.916;2022-12-07T07:51:57;3.50;99.90
6843;DHT22;3460;52.028;8.916;2022-12-07T07:54:24;3.50;99.90
6843;DHT22;3460;52.028;8.916;2022-12-07T07:56:51;3.40;99.90
6843;DHT22;3460;52.028;8.916;2022-12-07T07:59:18;3.40;99.90
6843;DHT22;3460;52.028;8.916;2022-12-07T08:01:46;3.40;99.90
6843;DHT22;3460;52.028;8.916;2022-12-07T08:04:13;3.40;99.90
6843;DHT22;3460;52.028;8.916;2022-12-07T08:06:39;3.40;99.90
6843;DHT22;3460;52.028;8.916;2022-12-07T08:09:07;3.40;99.90
6843;DHT22;3460;52.028;8.916;2022-12-07T08:11:34;3.40;99.90
6843;DHT22;3460;52.028;8.916;2022-12-07T08:14:01;3.40;99.90
6843;DHT22;3460;52.028;8.916;2022-12-07T08:16:28;3.50;99.90
6843;DHT22;3460;52.028;8.916;2022-12-07T08:18:56;3.50;99.90
6843;DHT22;3460;52.028;8.916;2022-12-07T08:21:23;3.50;99.90
6843;DHT22;3460;52.028;8.916;2022-12-07T08:23:50;3.40;99.90
6843;DHT22;3460;52.028;8.916;2022-12-07T08:26:16;3.50;99.90
6843;DHT22;3460;52.028;8.916;2022-12-07T08:28:43;3.40;99.90
6843;DHT22;3460;52.028;8.916;2022-12-07T08:31:12;3.40;99.90
6843;DHT22;3460;52.028;8.916;2022-12-07T08:33:40;3.40;99.90
6843;DHT22;3460;52.028;8.916;2022-12-07T08:36:13;3.40;99.90
6843;DHT22;3460;52.028;8.916;2022-12-07T08:38:40;3.50;99.90
6843;DHT22;3460;52.028;8.916;2022-12-07T08:41:08;3.50;99.90
6843;DHT22;3460;52.028;8.916;2022-12-07T08:43:35;3.50;99.90
6843;DHT22;3460;52.028;8.916;2022-12-07T08:46:07;3.60;99.90
6843;DHT22;3460;52.028;8.916;2022-12-07T08:48:38;3.60;99.90
6843;DHT22;3460;52.028;8.916;2022-12-07T08:51:12;3.70;99.90
6843;DHT22;3460;52.028;8.916;2022-12-07T08:53:40;3.60;99.90
6843;DHT22;3460;52.028;8.916;2022-12-07T08:56:07;3.70;99.90
6843;DHT22;3460;52.028;8.916;2022-12-07T08:58:35;3.70;99.90
6843;DHT22;3460;52.028;8.916;2022-12-07T09:01:04;3.70;99.90
6843;DHT22;3460;52.028;8.916;2022-12-07T09:03:31;3.70;99.90
6843;DHT22;3460;52.028;8.916;2022-12-07T09:05:58;3.70;99.90
6843;DHT22;3460;52.028;8.916;2022-12-07T09:08:29;3.60;99.90
6843;DHT22;3460;52.028;8.916;2022-12-07T09:10:59;3.60;99.90
6843;DHT22;3460;52.028;8.916;2022-12-07T09:13:26;3.70;99.90
6843;DHT22;3460;52.028;8.916;2022-12-07T09:15:52;3.80;99.90
6843;DHT22;3460;52.028;8.916;2022-12-07T09:18:19;3.90;99.90
6843;DHT22;3460;52.028;8.916;2022-12-07T09:20:46;4.00;99.90
6843;DHT22;3460;52.028;8.916;2022-12-07T09:23:13;4.10;99.90
6843;DHT22;3460;52.028;8.916;2022-12-07T09:25:41;4.10;99.90
6843;DHT22;3460;52.028;8.916;2022-12-07T09:28:07;4.20;99.90
6843;DHT22;3460;52.028;8.916;2022-12-07T09:30:35;4.20;99.90
6843;DHT22;3460;52.028;8.916;2022-12-07T09:33:02;4.10;99.90
6843;DHT22;3460;52.028;8.916;2022-12-07T09:35:28;4.20;99.90
6843;DHT22;3460;52.028;8.916;2022-12-07T09:37:55;4.30;99.90
6843;DHT22;3460;52.028;8.916;2022-12-07T09:40:23;4.10;99.90
6843;DHT22;3460;52.028;8.916;2022-12-07T09:42:53;4.20;99.90
6843;DHT22;3460;52.028;8.916;2022-12-07T09:45:24;4.20;99.90
6843;DHT22;3460;52.028;8.916;2022-12-07T09:47:51;4.20;99.90
6843;DHT22;3460;52.028;8.916;2022-12-07T09:50:21;4.20;99.90
6843;DHT22;3460;52.028;8.916;2022-12-07T09:52:49;4.20;99.90
6843;DHT22;3460;52.028;8.916;2022-12-07T09:55:21;4.20;99.90
6843;DHT22;3460;52.028;8.916;2022-12-07T09:57:50;4.20;99.90
6843;DHT22;3460;52.028;8.916;2022-12-07T10:00:20;4.20;99.90
6843;DHT22;3460;52.028;8.916;2022-12-07T10:02:50;4.20;99.90
6843;DHT22;3460;52.028;8.916;2022-12-07T10:05:22;4.20;99.90
6843;DHT22;3460;52.028;8.916;2022-12-07T10:07:49;4.20;99.90
6843;DHT22;3460;52.028;8.916;2022-12-07T10:10:20;4.30;99.90
6843;DHT22;3460;52.028;8.916;2022-12-07T10:12:59;4.30;99.90
6843;DHT22;3460;52.028;8.916;2022-12-07T10:15:47;4.40;99.90
6843;DHT22;3460;52.028;8.916;2022-12-07T10:18:21;4.30;99.90
6843;DHT22;3460;52.028;8.916;2022-12-07T10:21:00;4.40;99.90
6843;DHT22;3460;52.028;8.916;2022-12-07T10:23:28;4.40;99.90
6843;DHT22;3460;52.028;8.916;2022-12-07T10:25:54;4.40;99.90
6843;DHT22;3460;52.028;8.916;2022-12-07T10:28:22;4.50;99.90
6843;DHT22;3460;52.028;8.916;2022-12-07T10:30:52;4.60;99.90
6843;DHT22;3460;52.028;8.916;2022-12-07T10:33:33;4.60;99.90
6843;DHT22;3460;52.028;8.916;2022-12-07T10:36:15;4.60;99.90
6843;DHT22;3460;52.028;8.916;2022-12-07T10:38:46;4.60;99.90
6843;DHT22;3460;52.028;8.916;2022-12-07T10:41:13;4.70;99.90
6843;DHT22;3460;52.028;8.916;2022-12-07T10:43:48;4.60;99.90
6843;DHT22;3460;52.028;8.916;2022-12-07T10:46:32;4.70;99.90
6843;DHT22;3460;52.028;8.916;2022-12-07T10:49:15;4.80;99.90
6843;DHT22;3460;52.028;8.916;2022-12-07T10:51:51;4.90;99.90
6843;DHT22;3460;52.028;8.916;2022-12-07T10:54:28;4.80;99.90
6843;DHT22;3460;52.028;8.916;2022-12-07T10:57:19;4.80;99.90
6843;DHT22;3460;52.028;8.916;2022-12-07T11:00:03;4.70;99.90
6843;DHT22;3460;52.028;8.916;2022-12-07T11:02:49;4.70;99.90
6843;DHT22;3460;52.028;8.916;2022-12-07T11:05:24;4.70;99.90
6843;DHT22;3460;52.028;8.916;2022-12-07T11:08:01;4.80;99.90
6843;DHT22;3460;52.028;8.916;2022-12-07T11:10:37;4.70;99.90
6843;DHT22;3460;52.028;8.916;2022-12-07T11:13:18;4.60;99.90
6843;DHT22;3460;52.028;8.916;2022-12-07T11:15:59;4.60;99.90
6843;DHT22;3460;52.028;8.916;2022-12-07T11:18:34;4.50;99.90
6843;DHT22;3460;52.028;8.916;2022-12-07T11:21:09;4.40;99.90
6843;DHT22;3460;52.028;8.916;2022-12-07T11:23:46;4.40;99.90
6843;DHT22;3460;52.028;8.916;2022-12-07T11:26:29;4.40;99.90
6843;DHT22;3460;52.028;8.916;2022-12-07T11:29:15;4.40;99.90
6843;DHT22;3460;52.028;8.916;2022-12-07T11:31:54;4.50;99.90
6843;DHT22;3460;52.028;8.916;2022-12-07T11:34:30;4.50;99.90
6843;DHT22;3460;52.028;8.916;2022-12-07T11:37:05;4.50;99.90
6843;DHT22;3460;52.028;8.916;2022-12-07T11:39:37;4.50;99.90
6843;DHT22;3460;52.028;8.916;2022-12-07T11:42:08;4.50;99.90
6843;DHT22;3460;52.028;8.916;2022-12-07T11:44:46;4.50;99.90
6843;DHT22;3460;52.028;8.916;2022-12-07T11:47:21;4.60;99.90
6843;DHT22;3460;52.028;8.916;2022-12-07T11:49:54;4.60;99.90
6843;DHT22;3460;52.028;8.916;2022-12-07T11:52:25;4.70;99.90
6843;DHT22;3460;52.028;8.916;2022-12-07T11:54:54;4.80;99.90
6843;DHT22;3460;52.028;8.916;2022-12-07T11:57:26;4.80;99.90
6843;DHT22;3460;52.028;8.916;2022-12-07T11:59:59;4.80;99.90
6843;DHT22;3460;52.028;8.916;2022-12-07T12:02:32;4.80;99.90
6843;DHT22;3460;52.028;8.916;2022-12-07T12:05:11;4.80;99.90
6843;DHT22;3460;52.028;8.916;2022-12-07T12:07:41;4.80;99.90
6843;DHT22;3460;52.028;8.916;2022-12-07T12:10:17;4.80;99.90
6843;DHT22;3460;52.028;8.916;2022-12-07T12:15:51;4.90;99.90
6843;DHT22;3460;52.028;8.916;2022-12-07T12:18:40;5.00;99.90
6843;DHT22;3460;52.028;8.916;2022-12-07T12:21:10;5.00;99.90
6843;DHT22;3460;52.028;8.916;2022-12-07T12:23:42;5.00;99.90
6843;DHT22;3460;52.028;8.916;2022-12-07T12:26:17;4.90;99.90
6843;DHT22;3460;52.028;8.916;2022-12-07T12:28:51;4.90;99.90
6843;DHT22;3460;52.028;8.916;2022-12-07T12:31:35;5.00;99.90
6843;DHT22;3460;52.028;8.916;2022-12-07T12:34:30;5.00;99.90
6843;DHT22;3460;52.028;8.916;2022-12-07T12:36:57;5.00;99.90
6843;DHT22;3460;52.028;8.916;2022-12-07T12:39:25;5.10;99.90
6843;DHT22;3460;52.028;8.916;2022-12-07T12:41:59;5.10;99.90
6843;DHT22;3460;52.028;8.916;2022-12-07T12:47:52;5.00;99.90
6843;DHT22;3460;52.028;8.916;2022-12-07T12:50:23;5.00;99.90
6843;DHT22;3460;52.028;8.916;2022-12-07T12:53:05;5.10;99.90
6843;DHT22;3460;52.028;8.916;2022-12-07T12:56:00;5.10;99.90
6843;DHT22;3460;52.028;8.916;2022-12-07T12:58:41;5.10;99.90
6843;DHT22;3460;52.028;8.916;2022-12-07T13:01:43;5.20;99.90
6843;DHT22;3460;52.028;8.916;2022-12-07T13:04:34;5.10;99.90
6843;DHT22;3460;52.028;8.916;2022-12-07T13:07:12;5.10;99.90
6843;DHT22;3460;52.028;8.916;2022-12-07T13:09:43;5.10;99.90
6843;DHT22;3460;52.028;8.916;2022-12-07T13:12:14;5.00;99.90
6843;DHT22;3460;52.028;8.916;2022-12-07T13:14:56;5.00;99.90
6843;DHT22;3460;52.028;8.916;2022-12-07T13:17:56;5.00;99.90
6843;DHT22;3460;52.028;8.916;2022-12-07T13:23:29;4.90;99.90
6843;DHT22;3460;52.028;8.916;2022-12-07T13:26:04;4.90;99.90
6843;DHT22;3460;52.028;8.916;2022-12-07T13:28:36;4.90;99.90
6843;DHT22;3460;52.028;8.916;2022-12-07T13:31:16;4.90;99.90
6843;DHT22;3460;52.028;8.916;2022-12-07T13:33:46;5.00;99.90
6843;DHT22;3460;52.028;8.916;2022-12-07T13:36:22;5.00;99.90
6843;DHT22;3460;52.028;8.916;2022-12-07T13:38:55;5.10;99.90
6843;DHT22;3460;52.028;8.916;2022-12-07T13:41:24;5.10;99.90
6843;DHT22;3460;52.028;8.916;2022-12-07T13:43:53;5.10;99.90
6843;DHT22;3460;52.028;8.916;2022-12-07T13:46:25;5.10;99.90
6843;DHT22;3460;52.028;8.916;2022-12-07T13:48:53;5.20;99.90
6843;DHT22;3460;52.028;8.916;2022-12-07T13:51:23;5.20;99.90
6843;DHT22;3460;52.028;8.916;2022-12-07T13:53:52;5.20;99.90
6843;DHT22;3460;52.028;8.916;2022-12-07T13:56:25;5.20;99.90
6843;DHT22;3460;52.028;8.916;2022-12-07T13:58:55;5.20;99.90
6843;DHT22;3460;52.028;8.916;2022-12-07T14:01:21;5.20;99.90
6843;DHT22;3460;52.028;8.916;2022-12-07T14:03:51;5.20;99.90
6843;DHT22;3460;52.028;8.916;2022-12-07T14:06:24;5.10;99.90
6843;DHT22;3460;52.028;8.916;2022-12-07T14:09:07;5.10;99.90
6843;DHT22;3460;52.028;8.916;2022-12-07T14:11:37;5.10;99.90
6843;DHT22;3460;52.028;8.916;2022-12-07T14:14:05;5.10;99.90
6843;DHT22;3460;52.028;8.916;2022-12-07T14:16:33;5.10;99.90
6843;DHT22;3460;52.028;8.916;2022-12-07T14:19:02;5.00;99.90
6843;DHT22;3460;52.028;8.916;2022-12-07T14:21:30;5.00;99.90
6843;DHT22;3460;52.028;8.916;2022-12-07T14:24:10;4.90;99.90
6843;DHT22;3460;52.028;8.916;2022-12-07T14:26:39;4.90;99.90
6843;DHT22;3460;52.028;8.916;2022-12-07T14:29:30;5.00;99.90
6843;DHT22;3460;52.028;8.916;2022-12-07T14:31:58;4.90;99.90
6843;DHT22;3460;52.028;8.916;2022-12-07T14:34:25;4.90;99.90
6843;DHT22;3460;52.028;8.916;2022-12-07T14:36:51;4.80;99.90
6843;DHT22;3460;52.028;8.916;2022-12-07T14:39:18;4.90;99.90
6843;DHT22;3460;52.028;8.916;2022-12-07T14:41:47;4.80;99.90
6843;DHT22;3460;52.028;8.916;2022-12-07T14:44:20;4.70;99.90
6843;DHT22;3460;52.028;8.916;2022-12-07T14:46:48;4.80;99.90
6843;DHT22;3460;52.028;8.916;2022-12-07T14:49:15;4.70;99.90
6843;DHT22;3460;52.028;8.916;2022-12-07T14:51:43;4.60;99.90
6843;DHT22;3460;52.028;8.916;2022-12-07T14:54:15;4.50;99.90
6843;DHT22;3460;52.028;8.916;2022-12-07T14:56:42;4.40;99.90
6843;DHT22;3460;52.028;8.916;2022-12-07T14:59:11;4.40;99.90
6843;DHT22;3460;52.028;8.916;2022-12-07T15:01:38;4.30;99.90
6843;DHT22;3460;52.028;8.916;2022-12-07T15:04:05;4.20;99.90
6843;DHT22;3460;52.028;8.916;2022-12-07T15:06:32;4.20;99.90
6843;DHT22;3460;52.028;8.916;2022-12-07T15:08:58;4.20;99.90
6843;DHT22;3460;52.028;8.916;2022-12-07T15:11:25;4.20;99.90
6843;DHT22;3460;52.028;8.916;2022-12-07T15:13:54;4.10;99.90
6843;DHT22;3460;52.028;8.916;2022-12-07T15:16:39;4.20;99.90
6843;DHT22;3460;52.028;8.916;2022-12-07T15:19:11;4.20;99.90
6843;DHT22;3460;52.028;8.916;2022-12-07T15:21:38;4.10;99.90
6843;DHT22;3460;52.028;8.916;2022-12-07T15:24:05;4.10;99.90
6843;DHT22;3460;52.028;8.916;2022-12-07T15:26:32;4.10;99.90
6843;DHT22;3460;52.028;8.916;2022-12-07T15:28:58;4.00;99.90
6843;DHT22;3460;52.028;8.916;2022-12-07T15:31:25;4.00;99.90
6843;DHT22;3460;52.028;8.916;2022-12-07T15:33:53;4.00;99.90
6843;DHT22;3460;52.028;8.916;2022-12-07T15:36:22;4.00;99.90
6843;DHT22;3460;52.028;8.916;2022-12-07T15:38:49;4.00;99.90
6843;DHT22;3460;52.028;8.916;2022-12-07T15:41:17;3.90;99.90
6843;DHT22;3460;52.028;8.916;2022-12-07T15:43:43;3.90;99.90
6843;DHT22;3460;52.028;8.916;2022-12-07T15:46:29;3.90;99.90
6843;DHT22;3460;52.028;8.916;2022-12-07T15:48:58;3.90;99.90
6843;DHT22;3460;52.028;8.916;2022-12-07T15:51:25;3.80;99.90
6843;DHT22;3460;52.028;8.916;2022-12-07T15:53:52;3.80;99.90
6843;DHT22;3460;52.028;8.916;2022-12-07T15:56:20;3.80;99.90
6843;DHT22;3460;52.028;8.916;2022-12-07T15:58:47;3.90;99.90
6843;DHT22;3460;52.028;8.916;2022-12-07T16:01:15;4.00;99.90
6843;DHT22;3460;52.028;8.916;2022-12-07T16:03:42;4.00;99.90
6843;DHT22;3460;52.028;8.916;2022-12-07T16:06:11;4.10;99.90
6843;DHT22;3460;52.028;8.916;2022-12-07T16:08:42;4.10;99.90
6843;DHT22;3460;52.028;8.916;2022-12-07T16:11:08;4.10;99.90
6843;DHT22;3460;52.028;8.916;2022-12-07T16:13:35;4.10;99.90
6843;DHT22;3460;52.028;8.916;2022-12-07T16:16:03;4.20;99.90
6843;DHT22;3460;52.028;8.916;2022-12-07T16:18:30;4.20;99.90
6843;DHT22;3460;52.028;8.916;2022-12-07T16:20:57;4.20;99.90
6843;DHT22;3460;52.028;8.916;2022-12-07T16:23:26;4.20;99.90
6843;DHT22;3460;52.028;8.916;2022-12-07T16:25:52;4.20;99.90
6843;DHT22;3460;52.028;8.916;2022-12-07T16:28:19;4.20;99.90
6843;DHT22;3460;52.028;8.916;2022-12-07T16:30:46;4.20;99.90
6843;DHT22;3460;52.028;8.916;2022-12-07T16:33:13;4.20;99.90
6843;DHT22;3460;52.028;8.916;2022-12-07T16:35:39;4.20;99.90
6843;DHT22;3460;52.028;8.916;2022-12-07T16:38:07;4.20;99.90
6843;DHT22;3460;52.028;8.916;2022-12-07T16:40:35;4.20;99.90
6843;DHT22;3460;52.028;8.916;2022-12-07T16:43:02;4.10;99.90
6843;DHT22;3460;52.028;8.916;2022-12-07T16:45:28;4.00;99.90
6843;DHT22;3460;52.028;8.916;2022-12-07T16:47:55;4.00;99.90